sensor_id;sensor_type;location;lat;lon;timestamp;temperature;humidity
19868;DHT22;10096;51.112;6.776;2024-02-21T00:01:45;10.40;99.90
19868;DHT22;10096;51.112;6.776;2024-02-21T00:04:26;10.20;99.90
19868;DHT22;10096;51.112;6.776;2024-02-21T00:06:57;10.50;99.90
19868;DHT22;10096;51.112;6.776;2024-02-21T00:09:31;10.40;99.90
19868;DHT22;10096;51.112;6.776;2024-02-21T00:12:01;10.40;99.90
19868;DHT22;10096;51.112;6.776;2024-02-21T00:14:33;10.30;99.90
19868;DHT22;10096;51.112;6.776;2024-02-21T00:17:08;10.10;99.90
19868;DHT22;10096;51.112;6.776;2024-02-21T00:19:46;10.30;99.90
19868;DHT22;10096;51.112;6.776;2024-02-21T00:22:18;10.40;99.90
19868;DHT22;10096;51.112;6.776;2024-02-21T00:24:56;10.40;99.90
19868;DHT22;10096;51.112;6.776;2024-02-21T00:27:32;10.40;99.90
19868;DHT22;10096;51.112;6.776;2024-02-21T00:30:01;10.50;99.90
19868;DHT22;10096;51.112;6.776;2024-02-21T00:32:40;10.40;99.90
19868;DHT22;10096;51.112;6.776;2024-02-21T00:35:18;10.10;99.90
19868;DHT22;10096;51.112;6.776;2024-02-21T00:37:52;10.00;99.90
19868;DHT22;10096;51.112;6.776;2024-02-21T00:40:29;10.40;99.90
19868;DHT22;10096;51.112;6.776;2024-02-21T00:43:03;10.30;99.90
19868;DHT22;10096;51.112;6.776;2024-02-21T00:45:35;10.30;99.90
19868;DHT22;10096;51.112;6.776;2024-02-21T00:48:07;10.30;99.90
19868;DHT22;10096;51.112;6.776;2024-02-21T00:50:36;10.20;99.90
19868;DHT22;10096;51.112;6.776;2024-02-21T00:53:13;10.20;99.90
19868;DHT22;10096;51.112;6.776;2024-02-21T00:55:46;10.30;99.90
19868;DHT22;10096;51.112;6.776;2024-02-21T00:58:15;10.20;99.90
19868;DHT22;10096;51.112;6.776;2024-02-21T01:00:52;10.20;99.90
19868;DHT22;10096;51.112;6.776;2024-02-21T01:03:41;10.30;99.90
19868;DHT22;10096;51.112;6.776;2024-02-21T01:06:15;10.40;99.90
19868;DHT22;10096;51.112;6.776;2024-02-21T01:09:00;10.10;99.90
19868;DHT22;10096;51.112;6.776;2024-02-21T01:11:43;10.10;99.90
19868;DHT22;10096;51.112;6.776;2024-02-21T01:14:23;10.40;99.90
19868;DHT22;10096;51.112;6.776;2024-02-21T01:17:04;10.40;99.90
19868;DHT22;10096;51.112;6.776;2024-02-21T01:19:55;10.40;99.90
19868;DHT22;10096;51.112;6.776;2024-02-21T01:22:48;10.20;99.90
19868;DHT22;10096;51.112;6.776;2024-02-21T01:25:32;10.50;99.90
19868;DHT22;10096;51.112;6.776;2024-02-21T01:28:26;10.50;99.90
19868;DHT22;10096;51.112;6.776;2024-02-21T01:31:24;10.40;99.90
19868;DHT22;10096;51.112;6.776;2024-02-21T01:34:19;10.40;99.90
19868;DHT22;10096;51.112;6.776;2024-02-21T01:37:03;10.40;99.90
19868;DHT22;10096;51.112;6.776;2024-02-21T01:39:44;10.40;99.90
19868;DHT22;10096;51.112;6.776;2024-02-21T01:42:44;10.50;99.90
19868;DHT22;10096;51.112;6.776;2024-02-21T01:45:28;10.30;99.90
19868;DHT22;10096;51.112;6.776;2024-02-21T01:48:11;10.00;99.90
19868;DHT22;10096;51.112;6.776;2024-02-21T01:51:01;10.30;99.90
19868;DHT22;10096;51.112;6.776;2024-02-21T01:53:55;10.30;99.90
19868;DHT22;10096;51.112;6.776;2024-02-21T01:56:31;10.20;99.90
19868;DHT22;10096;51.112;6.776;2024-02-21T01:59:42;10.20;99.90
19868;DHT22;10096;51.112;6.776;2024-02-21T02:02:19;10.30;99.90
19868;DHT22;10096;51.112;6.776;2024-02-21T02:05:04;10.10;99.90
19868;DHT22;10096;51.112;6.776;2024-02-21T02:07:54;10.00;99.90
19868;DHT22;10096;51.112;6.776;2024-02-21T02:10:59;10.30;99.90
19868;DHT22;10096;51.112;6.776;2024-02-21T02:14:02;10.40;99.90
19868;DHT22;10096;51.112;6.776;2024-02-21T02:17:02;10.50;99.90
19868;DHT22;10096;51.112;6.776;2024-02-21T02:19:54;10.00;99.90
19868;DHT22;10096;51.112;6.776;2024-02-21T02:22:48;10.30;99.90
19868;DHT22;10096;51.112;6.776;2024-02-21T02:25:28;10.20;99.90
19868;DHT22;10096;51.112;6.776;2024-02-21T02:28:22;10.30;99.90
19868;DHT22;10096;51.112;6.776;2024-02-21T02:30:59;10.40;99.90
19868;DHT22;10096;51.112;6.776;2024-02-21T02:33:42;10.20;99.90
19868;DHT22;10096;51.112;6.776;2024-02-21T02:36:35;10.10;99.90
19868;DHT22;10096;51.112;6.776;2024-02-21T02:39:09;10.30;99.90
19868;DHT22;10096;51.112;6.776;2024-02-21T02:42:07;10.00;99.90
19868;DHT22;10096;51.112;6.776;2024-02-21T02:44:46;10.20;99.90
19868;DHT22;10096;51.112;6.776;2024-02-21T02:47:39;10.30;99.90
19868;DHT22;10096;51.112;6.776;2024-02-21T02:50:10;10.30;99.90
19868;DHT22;10096;51.112;6.776;2024-02-21T02:52:37;10.30;99.90
19868;DHT22;10096;51.112;6.776;2024-02-21T02:55:12;10.40;99.90
19868;DHT22;10096;51.112;6.776;2024-02-21T02:57:42;10.30;99.90
19868;DHT22;10096;51.112;6.776;2024-02-21T03:00:21;10.30;99.90
19868;DHT22;10096;51.112;6.776;2024-02-21T03:02:53;10.40;99.90
19868;DHT22;10096;51.112;6.776;2024-02-21T03:05:24;10.20;99.90
19868;DHT22;10096;51.112;6.776;2024-02-21T03:07:53;10.20;99.90
19868;DHT22;10096;51.112;6.776;2024-02-21T03:10:23;10.10;99.90
19868;DHT22;10096;51.112;6.776;2024-02-21T03:12:56;10.20;99.90
19868;DHT22;10096;51.112;6.776;2024-02-21T03:15:32;10.10;99.90
19868;DHT22;10096;51.112;6.776;2024-02-21T03:18:02;10.00;99.90
19868;DHT22;10096;51.112;6.776;2024-02-21T03:20:49;10.20;99.90
19868;DHT22;10096;51.112;6.776;2024-02-21T03:26:55;10.30;99.90
19868;DHT22;10096;51.112;6.776;2024-02-21T03:30:17;10.10;99.90
19868;DHT22;10096;51.112;6.776;2024-02-21T03:33:20;10.20;99.90
19868;DHT22;10096;51.112;6.776;2024-02-21T03:35:58;10.00;99.90
19868;DHT22;10096;51.112;6.776;2024-02-21T03:38:45;10.20;99.90
19868;DHT22;10096;51.112;6.776;2024-02-21T03:41:48;10.20;99.90
19868;DHT22;10096;51.112;6.776;2024-02-21T03:44:31;10.10;99.90
19868;DHT22;10096;51.112;6.776;2024-02-21T03:47:13;10.30;99.90
19868;DHT22;10096;51.112;6.776;2024-02-21T03:49:53;10.20;99.90
19868;DHT22;10096;51.112;6.776;2024-02-21T03:52:47;10.30;99.90
19868;DHT22;10096;51.112;6.776;2024-02-21T03:55:51;10.30;99.90
19868;DHT22;10096;51.112;6.776;2024-02-21T03:58:25;10.40;99.90
19868;DHT22;10096;51.112;6.776;2024-02-21T04:00:54;10.30;99.90
19868;DHT22;10096;51.112;6.776;2024-02-21T04:03:36;10.10;99.90
19868;DHT22;10096;51.112;6.776;2024-02-21T04:06:06;10.30;99.90
19868;DHT22;10096;51.112;6.776;2024-02-21T04:08:56;10.40;99.90
19868;DHT22;10096;51.112;6.776;2024-02-21T04:11:29;10.20;99.90
19868;DHT22;10096;51.112;6.776;2024-02-21T04:14:01;10.30;99.90
19868;DHT22;10096;51.112;6.776;2024-02-21T04:16:40;10.00;99.90
19868;DHT22;10096;51.112;6.776;2024-02-21T04:19:09;10.40;99.90
19868;DHT22;10096;51.112;6.776;2024-02-21T04:21:36;10.20;99.90
19868;DHT22;10096;51.112;6.776;2024-02-21T04:24:07;10.30;99.90
19868;DHT22;10096;51.112;6.776;2024-02-21T04:26:38;10.20;99.90
19868;DHT22;10096;51.112;6.776;2024-02-21T04:29:11;10.20;99.90
19868;DHT22;10096;51.112;6.776;2024-02-21T04:31:38;10.10;99.90
19868;DHT22;10096;51.112;6.776;2024-02-21T04:34:35;10.30;99.90
19868;DHT22;10096;51.112;6.776;2024-02-21T04:37:02;10.10;99.90
19868;DHT22;10096;51.112;6.776;2024-02-21T04:39:29;10.10;99.90
19868;DHT22;10096;51.112;6.776;2024-02-21T04:41:56;10.20;99.90
19868;DHT22;10096;51.112;6.776;2024-02-21T04:44:23;10.20;99.90
19868;DHT22;10096;51.112;6.776;2024-02-21T04:46:50;10.20;99.90
19868;DHT22;10096;51.112;6.776;2024-02-21T04:49:17;10.40;99.90
19868;DHT22;10096;51.112;6.776;2024-02-21T04:51:45;10.30;99.90
19868;DHT22;10096;51.112;6.776;2024-02-21T04:54:13;10.20;99.90
19868;DHT22;10096;51.112;6.776;2024-02-21T04:56:42;10.40;99.90
19868;DHT22;10096;51.112;6.776;2024-02-21T04:59:16;10.40;99.90
19868;DHT22;10096;51.112;6.776;2024-02-21T05:01:44;10.20;99.90
19868;DHT22;10096;51.112;6.776;2024-02-21T05:04:12;10.50;99.90
19868;DHT22;10096;51.112;6.776;2024-02-21T05:07:00;10.30;99.90
19868;DHT22;10096;51.112;6.776;2024-02-21T05:09:50;10.40;99.90
19868;DHT22;10096;51.112;6.776;2024-02-21T05:12:21;10.20;99.90
19868;DHT22;10096;51.112;6.776;2024-02-21T05:14:51;10.30;99.90
19868;DHT22;10096;51.112;6.776;2024-02-21T05:17:18;10.40;99.90
19868;DHT22;10096;51.112;6.776;2024-02-21T05:19:45;10.30;99.90
19868;DHT22;10096;51.112;6.776;2024-02-21T05:22:15;10.30;99.90
19868;DHT22;10096;51.112;6.776;2024-02-21T05:24:45;10.30;99.90
19868;DHT22;10096;51.112;6.776;2024-02-21T05:27:14;10.30;99.90
19868;DHT22;10096;51.112;6.776;2024-02-21T05:29:55;10.20;99.90
19868;DHT22;10096;51.112;6.776;2024-02-21T05:32:23;10.30;99.90
19868;DHT22;10096;51.112;6.776;2024-02-21T05:34:52;10.30;99.90
19868;DHT22;10096;51.112;6.776;2024-02-21T05:37:23;10.20;99.90
19868;DHT22;10096;51.112;6.776;2024-02-21T05:39:57;10.20;99.90
19868;DHT22;10096;51.112;6.776;2024-02-21T05:42:26;10.30;99.90
19868;DHT22;10096;51.112;6.776;2024-02-21T05:45:00;10.10;99.90
19868;DHT22;10096;51.112;6.776;2024-02-21T05:47:27;10.20;99.90
19868;DHT22;10096;51.112;6.776;2024-02-21T05:49:54;10.20;99.90
19868;DHT22;10096;51.112;6.776;2024-02-21T05:52:24;10.20;99.90
19868;DHT22;10096;51.112;6.776;2024-02-21T05:54:51;10.20;99.90
19868;DHT22;10096;51.112;6.776;2024-02-21T05:57:18;10.10;99.90
19868;DHT22;10096;51.112;6.776;2024-02-21T05:59:45;9.80;99.90
19868;DHT22;10096;51.112;6.776;2024-02-21T06:02:11;10.30;99.90
19868;DHT22;10096;51.112;6.776;2024-02-21T06:04:50;10.10;99.90
19868;DHT22;10096;51.112;6.776;2024-02-21T06:07:19;10.20;99.90
19868;DHT22;10096;51.112;6.776;2024-02-21T06:10:04;10.10;99.90
19868;DHT22;10096;51.112;6.776;2024-02-21T06:12:36;10.10;99.90
19868;DHT22;10096;51.112;6.776;2024-02-21T06:15:03;10.00;99.90
19868;DHT22;10096;51.112;6.776;2024-02-21T06:17:32;10.00;99.90
19868;DHT22;10096;51.112;6.776;2024-02-21T06:20:46;10.20;99.90
19868;DHT22;10096;51.112;6.776;2024-02-21T06:22:52;9.90;99.90
19868;DHT22;10096;51.112;6.776;2024-02-21T06:25:39;9.90;99.90
19868;DHT22;10096;51.112;6.776;2024-02-21T06:28:08;10.00;99.90
19868;DHT22;10096;51.112;6.776;2024-02-21T06:30:35;9.90;99.90
19868;DHT22;10096;51.112;6.776;2024-02-21T06:33:04;9.70;99.90
19868;DHT22;10096;51.112;6.776;2024-02-21T06:35:36;10.00;99.90
19868;DHT22;10096;51.112;6.776;2024-02-21T06:38:07;10.10;99.90
19868;DHT22;10096;51.112;6.776;2024-02-21T06:40:38;10.10;99.90
19868;DHT22;10096;51.112;6.776;2024-02-21T06:43:05;10.20;99.90
19868;DHT22;10096;51.112;6.776;2024-02-21T06:45:32;10.00;99.90
19868;DHT22;10096;51.112;6.776;2024-02-21T06:48:08;10.10;99.90
19868;DHT22;10096;51.112;6.776;2024-02-21T06:50:35;9.80;99.90
19868;DHT22;10096;51.112;6.776;2024-02-21T06:53:05;10.30;99.90
19868;DHT22;10096;51.112;6.776;2024-02-21T06:55:42;10.10;99.90
19868;DHT22;10096;51.112;6.776;2024-02-21T06:58:09;10.10;99.90
19868;DHT22;10096;51.112;6.776;2024-02-21T07:00:39;10.10;99.90
19868;DHT22;10096;51.112;6.776;2024-02-21T07:03:06;10.20;99.90
19868;DHT22;10096;51.112;6.776;2024-02-21T07:05:33;10.40;99.90
19868;DHT22;10096;51.112;6.776;2024-02-21T07:08:00;10.30;99.90
19868;DHT22;10096;51.112;6.776;2024-02-21T07:10:34;10.30;99.90
19868;DHT22;10096;51.112;6.776;2024-02-21T07:13:02;10.40;99.90
19868;DHT22;10096;51.112;6.776;2024-02-21T07:15:29;10.40;99.90
19868;DHT22;10096;51.112;6.776;2024-02-21T07:17:58;10.30;99.90
19868;DHT22;10096;51.112;6.776;2024-02-21T07:20:28;10.40;99.90
19868;DHT22;10096;51.112;6.776;2024-02-21T07:22:57;10.40;99.90
19868;DHT22;10096;51.112;6.776;2024-02-21T07:25:26;10.20;99.90
19868;DHT22;10096;51.112;6.776;2024-02-21T07:27:55;10.50;99.90
19868;DHT22;10096;51.112;6.776;2024-02-21T07:30:43;10.60;99.90
19868;DHT22;10096;51.112;6.776;2024-02-21T07:33:14;10.50;99.90
19868;DHT22;10096;51.112;6.776;2024-02-21T07:35:52;10.60;99.90
19868;DHT22;10096;51.112;6.776;2024-02-21T07:38:19;10.20;99.90
19868;DHT22;10096;51.112;6.776;2024-02-21T07:40:49;10.60;99.90
19868;DHT22;10096;51.112;6.776;2024-02-21T07:43:22;10.60;99.90
19868;DHT22;10096;51.112;6.776;2024-02-21T07:46:04;10.50;99.90
19868;DHT22;10096;51.112;6.776;2024-02-21T07:48:32;10.40;99.90
19868;DHT22;10096;51.112;6.776;2024-02-21T07:51:07;10.40;99.90
19868;DHT22;10096;51.112;6.776;2024-02-21T07:53:42;10.40;99.90
19868;DHT22;10096;51.112;6.776;2024-02-21T07:56:13;10.50;99.90
19868;DHT22;10096;51.112;6.776;2024-02-21T07:58:43;10.20;99.90
19868;DHT22;10096;51.112;6.776;2024-02-21T08:01:20;10.30;99.90
19868;DHT22;10096;51.112;6.776;2024-02-21T08:03:50;10.30;99.90
19868;DHT22;10096;51.112;6.776;2024-02-21T08:06:19;10.40;99.90
19868;DHT22;10096;51.112;6.776;2024-02-21T08:08:49;10.40;99.90
19868;DHT22;10096;51.112;6.776;2024-02-21T08:11:16;10.30;99.90
19868;DHT22;10096;51.112;6.776;2024-02-21T08:13:43;10.20;99.90
19868;DHT22;10096;51.112;6.776;2024-02-21T08:16:10;10.40;99.90
19868;DHT22;10096;51.112;6.776;2024-02-21T08:18:38;10.10;99.90
19868;DHT22;10096;51.112;6.776;2024-02-21T08:21:05;10.10;99.90
19868;DHT22;10096;51.112;6.776;2024-02-21T08:23:35;10.30;99.90
19868;DHT22;10096;51.112;6.776;2024-02-21T08:26:06;10.20;99.90
19868;DHT22;10096;51.112;6.776;2024-02-21T08:28:39;10.30;99.90
19868;DHT22;10096;51.112;6.776;2024-02-21T08:31:06;10.30;99.90
19868;DHT22;10096;51.112;6.776;2024-02-21T08:33:33;10.30;99.90
19868;DHT22;10096;51.112;6.776;2024-02-21T08:36:08;10.40;99.90
19868;DHT22;10096;51.112;6.776;2024-02-21T08:38:43;10.40;99.90
19868;DHT22;10096;51.112;6.776;2024-02-21T08:41:14;10.40;99.90
19868;DHT22;10096;51.112;6.776;2024-02-21T08:43:45;10.40;99.90
19868;DHT22;10096;51.112;6.776;2024-02-21T08:46:16;10.30;99.90
19868;DHT22;10096;51.112;6.776;2024-02-21T08:48:46;10.20;99.90
19868;DHT22;10096;51.112;6.776;2024-02-21T08:51:15;10.30;99.90
19868;DHT22;10096;51.112;6.776;2024-02-21T08:53:44;10.40;99.90
19868;DHT22;10096;51.112;6.776;2024-02-21T08:56:25;10.30;99.90
19868;DHT22;10096;51.112;6.776;2024-02-21T08:58:58;10.60;99.90
19868;DHT22;10096;51.112;6.776;2024-02-21T09:01:26;10.80;99.90
19868;DHT22;10096;51.112;6.776;2024-02-21T09:03:55;10.80;99.90
19868;DHT22;10096;51.112;6.776;2024-02-21T09:06:37;10.80;99.90
19868;DHT22;10096;51.112;6.776;2024-02-21T09:09:07;10.80;99.90
19868;DHT22;10096;51.112;6.776;2024-02-21T09:11:35;10.60;99.90
19868;DHT22;10096;51.112;6.776;2024-02-21T09:14:02;10.60;99.90
19868;DHT22;10096;51.112;6.776;2024-02-21T09:16:31;10.80;99.90
19868;DHT22;10096;51.112;6.776;2024-02-21T09:18:59;10.80;99.90
19868;DHT22;10096;51.112;6.776;2024-02-21T09:21:34;10.60;99.90
19868;DHT22;10096;51.112;6.776;2024-02-21T09:24:01;10.80;99.90
19868;DHT22;10096;51.112;6.776;2024-02-21T09:26:28;11.00;99.90
19868;DHT22;10096;51.112;6.776;2024-02-21T09:28:55;11.10;99.90
19868;DHT22;10096;51.112;6.776;2024-02-21T09:31:22;11.30;99.90
19868;DHT22;10096;51.112;6.776;2024-02-21T09:33:49;11.30;99.90
19868;DHT22;10096;51.112;6.776;2024-02-21T09:36:16;11.40;99.90
19868;DHT22;10096;51.112;6.776;2024-02-21T09:38:45;11.20;99.90
19868;DHT22;10096;51.112;6.776;2024-02-21T09:41:15;11.30;99.90
19868;DHT22;10096;51.112;6.776;2024-02-21T09:43:46;11.10;99.90
19868;DHT22;10096;51.112;6.776;2024-02-21T09:46:28;11.10;99.90
19868;DHT22;10096;51.112;6.776;2024-02-21T09:49:09;11.10;99.90
19868;DHT22;10096;51.112;6.776;2024-02-21T09:51:51;11.30;99.90
19868;DHT22;10096;51.112;6.776;2024-02-21T09:54:23;11.10;99.90
19868;DHT22;10096;51.112;6.776;2024-02-21T09:56:51;10.90;99.90
19868;DHT22;10096;51.112;6.776;2024-02-21T09:59:38;11.70;99.90
19868;DHT22;10096;51.112;6.776;2024-02-21T10:02:12;11.70;99.90
19868;DHT22;10096;51.112;6.776;2024-02-21T10:04:43;11.40;99.90
19868;DHT22;10096;51.112;6.776;2024-02-21T10:07:10;11.50;99.90
19868;DHT22;10096;51.112;6.776;2024-02-21T10:09:39;11.40;99.90
19868;DHT22;10096;51.112;6.776;2024-02-21T10:12:08;11.50;99.90
19868;DHT22;10096;51.112;6.776;2024-02-21T10:14:40;11.50;99.90
19868;DHT22;10096;51.112;6.776;2024-02-21T10:17:08;11.50;99.90
19868;DHT22;10096;51.112;6.776;2024-02-21T10:19:35;11.60;99.90
19868;DHT22;10096;51.112;6.776;2024-02-21T10:22:03;11.70;99.90
19868;DHT22;10096;51.112;6.776;2024-02-21T10:24:31;11.70;99.90
19868;DHT22;10096;51.112;6.776;2024-02-21T10:27:02;11.80;99.90
19868;DHT22;10096;51.112;6.776;2024-02-21T10:29:30;11.60;99.90
19868;DHT22;10096;51.112;6.776;2024-02-21T10:32:10;11.80;99.90
19868;DHT22;10096;51.112;6.776;2024-02-21T10:34:43;11.60;99.90
19868;DHT22;10096;51.112;6.776;2024-02-21T10:37:16;11.50;99.90
19868;DHT22;10096;51.112;6.776;2024-02-21T10:39:53;11.50;99.90
19868;DHT22;10096;51.112;6.776;2024-02-21T10:42:29;11.80;99.90
19868;DHT22;10096;51.112;6.776;2024-02-21T10:45:01;11.60;99.90
19868;DHT22;10096;51.112;6.776;2024-02-21T10:47:38;11.60;99.90
19868;DHT22;10096;51.112;6.776;2024-02-21T10:50:13;11.60;99.90
19868;DHT22;10096;51.112;6.776;2024-02-21T10:52:50;11.40;99.90
19868;DHT22;10096;51.112;6.776;2024-02-21T10:55:33;11.60;99.90
19868;DHT22;10096;51.112;6.776;2024-02-21T10:58:15;11.70;99.90
19868;DHT22;10096;51.112;6.776;2024-02-21T11:00:43;11.90;99.90
19868;DHT22;10096;51.112;6.776;2024-02-21T11:03:13;11.70;99.90
19868;DHT22;10096;51.112;6.776;2024-02-21T11:05:41;11.80;99.90
19868;DHT22;10096;51.112;6.776;2024-02-21T11:08:12;11.90;99.90
19868;DHT22;10096;51.112;6.776;2024-02-21T11:10:40;11.80;99.90
19868;DHT22;10096;51.112;6.776;2024-02-21T11:13:18;11.80;99.90
19868;DHT22;10096;51.112;6.776;2024-02-21T11:15:49;11.80;99.90
19868;DHT22;10096;51.112;6.776;2024-02-21T11:18:23;11.70;99.90
19868;DHT22;10096;51.112;6.776;2024-02-21T11:20:50;12.10;99.90
19868;DHT22;10096;51.112;6.776;2024-02-21T11:23:25;12.10;99.90
19868;DHT22;10096;51.112;6.776;2024-02-21T11:25:52;12.20;99.90
19868;DHT22;10096;51.112;6.776;2024-02-21T11:28:26;11.80;99.90
19868;DHT22;10096;51.112;6.776;2024-02-21T11:31:04;11.70;99.90
19868;DHT22;10096;51.112;6.776;2024-02-21T11:33:34;11.80;99.90
19868;DHT22;10096;51.112;6.776;2024-02-21T11:36:22;12.00;99.90
19868;DHT22;10096;51.112;6.776;2024-02-21T11:39:03;12.00;99.90
19868;DHT22;10096;51.112;6.776;2024-02-21T11:41:32;11.90;99.90
19868;DHT22;10096;51.112;6.776;2024-02-21T11:44:00;11.80;99.90
19868;DHT22;10096;51.112;6.776;2024-02-21T11:46:27;12.00;99.90
19868;DHT22;10096;51.112;6.776;2024-02-21T11:48:57;11.80;99.90
19868;DHT22;10096;51.112;6.776;2024-02-21T11:51:29;12.00;99.90
19868;DHT22;10096;51.112;6.776;2024-02-21T11:53:55;11.80;99.90
19868;DHT22;10096;51.112;6.776;2024-02-21T11:56:23;11.80;99.90
19868;DHT22;10096;51.112;6.776;2024-02-21T11:59:01;12.00;99.90
19868;DHT22;10096;51.112;6.776;2024-02-21T12:01:28;11.90;99.90
19868;DHT22;10096;51.112;6.776;2024-02-21T12:03:57;12.10;99.90
19868;DHT22;10096;51.112;6.776;2024-02-21T12:06:25;12.00;99.90
19868;DHT22;10096;51.112;6.776;2024-02-21T12:08:52;12.20;99.90
19868;DHT22;10096;51.112;6.776;2024-02-21T12:11:26;11.90;99.90
19868;DHT22;10096;51.112;6.776;2024-02-21T12:14:01;12.00;99.90
19868;DHT22;10096;51.112;6.776;2024-02-21T12:16:40;12.00;99.90
19868;DHT22;10096;51.112;6.776;2024-02-21T12:19:09;12.10;99.90
19868;DHT22;10096;51.112;6.776;2024-02-21T12:21:38;12.30;99.90
19868;DHT22;10096;51.112;6.776;2024-02-21T12:24:14;12.10;99.90
19868;DHT22;10096;51.112;6.776;2024-02-21T12:26:56;12.10;99.90
19868;DHT22;10096;51.112;6.776;2024-02-21T12:29:27;11.80;99.90
19868;DHT22;10096;51.112;6.776;2024-02-21T12:31:55;11.90;99.90
19868;DHT22;10096;51.112;6.776;2024-02-21T12:34:23;12.20;99.90
19868;DHT22;10096;51.112;6.776;2024-02-21T12:36:55;12.20;99.90
19868;DHT22;10096;51.112;6.776;2024-02-21T12:39:25;12.30;99.90
19868;DHT22;10096;51.112;6.776;2024-02-21T12:41:54;12.40;99.90
19868;DHT22;10096;51.112;6.776;2024-02-21T12:44:22;12.60;99.90
19868;DHT22;10096;51.112;6.776;2024-02-21T12:46:52;12.70;99.90
19868;DHT22;10096;51.112;6.776;2024-02-21T12:49:23;12.90;99.90
19868;DHT22;10096;51.112;6.776;2024-02-21T12:52:00;12.70;99.90
19868;DHT22;10096;51.112;6.776;2024-02-21T12:54:29;12.80;99.90
19868;DHT22;10096;51.112;6.776;2024-02-21T12:56:57;12.60;99.90
19868;DHT22;10096;51.112;6.776;2024-02-21T12:59:28;12.70;99.90
19868;DHT22;10096;51.112;6.776;2024-02-21T13:01:57;12.80;99.90
19868;DHT22;10096;51.112;6.776;2024-02-21T13:04:24;12.80;99.90
19868;DHT22;10096;51.112;6.776;2024-02-21T13:06:51;12.80;99.90
19868;DHT22;10096;51.112;6.776;2024-02-21T13:09:24;12.60;99.90
19868;DHT22;10096;51.112;6.776;2024-02-21T13:11:57;12.60;99.90
19868;DHT22;10096;51.112;6.776;2024-02-21T13:14:28;12.80;99.90
19868;DHT22;10096;51.112;6.776;2024-02-21T13:16:57;12.70;99.90
19868;DHT22;10096;51.112;6.776;2024-02-21T13:19:25;12.60;99.90
19868;DHT22;10096;51.112;6.776;2024-02-21T13:21:52;12.80;99.90
19868;DHT22;10096;51.112;6.776;2024-02-21T13:24:19;12.70;99.90
19868;DHT22;10096;51.112;6.776;2024-02-21T13:30:05;12.60;99.90
19868;DHT22;10096;51.112;6.776;2024-02-21T13:32:38;12.90;99.90
19868;DHT22;10096;51.112;6.776;2024-02-21T13:35:14;12.80;99.90
19868;DHT22;10096;51.112;6.776;2024-02-21T13:37:47;12.90;99.90
19868;DHT22;10096;51.112;6.776;2024-02-21T13:40:17;12.80;99.90
19868;DHT22;10096;51.112;6.776;2024-02-21T13:42:50;13.00;99.90
19868;DHT22;10096;51.112;6.776;2024-02-21T13:45:19;13.20;99.90
19868;DHT22;10096;51.112;6.776;2024-02-21T13:47:48;12.90;99.90
19868;DHT22;10096;51.112;6.776;2024-02-21T13:50:16;12.90;99.90
19868;DHT22;10096;51.112;6.776;2024-02-21T13:52:44;12.70;99.90
19868;DHT22;10096;51.112;6.776;2024-02-21T13:55:13;12.90;99.90
19868;DHT22;10096;51.112;6.776;2024-02-21T13:57:44;12.80;99.90
19868;DHT22;10096;51.112;6.776;2024-02-21T14:00:14;12.70;99.90
19868;DHT22;10096;51.112;6.776;2024-02-21T14:02:42;12.70;99.90
19868;DHT22;10096;51.112;6.776;2024-02-21T14:05:13;12.70;99.90
19868;DHT22;10096;51.112;6.776;2024-02-21T14:07:40;12.50;99.90
19868;DHT22;10096;51.112;6.776;2024-02-21T14:10:12;12.60;99.90
19868;DHT22;10096;51.112;6.776;2024-02-21T14:12:50;12.80;99.90
19868;DHT22;10096;51.112;6.776;2024-02-21T14:15:20;12.60;99.90
19868;DHT22;10096;51.112;6.776;2024-02-21T14:18:10;12.50;99.90
19868;DHT22;10096;51.112;6.776;2024-02-21T14:20:51;12.50;99.90
19868;DHT22;10096;51.112;6.776;2024-02-21T14:23:24;12.60;99.90
19868;DHT22;10096;51.112;6.776;2024-02-21T14:25:50;12.70;99.90
19868;DHT22;10096;51.112;6.776;2024-02-21T14:28:21;12.80;99.90
19868;DHT22;10096;51.112;6.776;2024-02-21T14:31:07;12.80;99.90
19868;DHT22;10096;51.112;6.776;2024-02-21T14:33:36;13.00;99.90
19868;DHT22;10096;51.112;6.776;2024-02-21T14:36:09;12.60;99.90
19868;DHT22;10096;51.112;6.776;2024-02-21T14:38:37;12.80;99.90
19868;DHT22;10096;51.112;6.776;2024-02-21T14:41:04;12.70;99.90
19868;DHT22;10096;51.112;6.776;2024-02-21T14:43:31;12.90;99.90
19868;DHT22;10096;51.112;6.776;2024-02-21T14:46:01;12.90;99.90
19868;DHT22;10096;51.112;6.776;2024-02-21T14:48:35;12.50;99.90
19868;DHT22;10096;51.112;6.776;2024-02-21T14:51:10;12.70;99.90
19868;DHT22;10096;51.112;6.776;2024-02-21T14:53:39;12.70;99.90
19868;DHT22;10096;51.112;6.776;2024-02-21T14:56:29;12.70;99.90
19868;DHT22;10096;51.112;6.776;2024-02-21T14:59:08;12.90;99.90
19868;DHT22;10096;51.112;6.776;2024-02-21T15:01:39;12.80;99.90
19868;DHT22;10096;51.112;6.776;2024-02-21T15:04:07;12.80;99.90
19868;DHT22;10096;51.112;6.776;2024-02-21T15:06:46;12.40;99.90
19868;DHT22;10096;51.112;6.776;2024-02-21T15:09:16;12.70;99.90
19868;DHT22;10096;51.112;6.776;2024-02-21T15:12:30;12.70;99.90
19868;DHT22;10096;51.112;6.776;2024-02-21T15:14:59;12.80;99.90
19868;DHT22;10096;51.112;6.776;2024-02-21T15:17:28;12.80;99.90
19868;DHT22;10096;51.112;6.776;2024-02-21T15:19:57;12.70;99.90
19868;DHT22;10096;51.112;6.776;2024-02-21T15:22:38;12.60;99.90
19868;DHT22;10096;51.112;6.776;2024-02-21T15:25:05;12.50;99.90
19868;DHT22;10096;51.112;6.776;2024-02-21T15:27:33;12.60;99.90
19868;DHT22;10096;51.112;6.776;2024-02-21T15:30:02;12.70;99.90
19868;DHT22;10096;51.112;6.776;2024-02-21T15:32:29;12.70;99.90
19868;DHT22;10096;51.112;6.776;2024-02-21T15:35:10;12.90;99.90
19868;DHT22;10096;51.112;6.776;2024-02-21T15:37:38;12.50;99.90
19868;DHT22;10096;51.112;6.776;2024-02-21T15:40:29;12.60;99.90
19868;DHT22;10096;51.112;6.776;2024-02-21T15:43:16;12.80;98.20
19868;DHT22;10096;51.112;6.776;2024-02-21T15:45:48;12.50;96.10
19868;DHT22;10096;51.112;6.776;2024-02-21T15:48:19;12.60;94.90
19868;DHT22;10096;51.112;6.776;2024-02-21T15:50:49;12.60;94.80
19868;DHT22;10096;51.112;6.776;2024-02-21T15:53:18;12.50;93.30
19868;DHT22;10096;51.112;6.776;2024-02-21T15:55:50;12.50;94.80
19868;DHT22;10096;51.112;6.776;2024-02-21T15:58:21;12.60;99.20
19868;DHT22;10096;51.112;6.776;2024-02-21T16:00:57;12.40;98.70
19868;DHT22;10096;51.112;6.776;2024-02-21T16:03:25;12.30;97.40
19868;DHT22;10096;51.112;6.776;2024-02-21T16:05:52;12.30;99.40
19868;DHT22;10096;51.112;6.776;2024-02-21T16:08:24;12.40;98.00
19868;DHT22;10096;51.112;6.776;2024-02-21T16:11:05;12.20;93.90
19868;DHT22;10096;51.112;6.776;2024-02-21T16:13:35;12.20;93.90
19868;DHT22;10096;51.112;6.776;2024-02-21T16:16:04;11.80;95.80
19868;DHT22;10096;51.112;6.776;2024-02-21T16:18:37;12.10;95.90
19868;DHT22;10096;51.112;6.776;2024-02-21T16:21:12;12.00;94.00